sensor_id;sensor_type;location;lat;lon;timestamp;pressure;altitude;pressure_sealevel;temperature;humidity
4199;BME280;2113;50.946;14.610;2022-12-18T00:00:07;98408.88;;;-2.22;62.96
4199;BME280;2113;50.946;14.610;2022-12-18T00:02:41;98415.84;;;-2.64;63.67
4199;BME280;2113;50.946;14.610;2022-12-18T00:05:09;98417.28;;;-2.00;62.78
4199;BME280;2113;50.946;14.610;2022-12-18T00:07:37;98410.03;;;-2.13;62.24
4199;BME280;2113;50.946;14.610;2022-12-18T00:10:06;98417.81;;;-2.09;62.21
4199;BME280;2113;50.946;14.610;2022-12-18T00:12:36;98422.78;;;-1.88;62.22
4199;BME280;2113;50.946;14.610;2022-12-18T00:15:07;98424.72;;;-1.81;61.32
4199;BME280;2113;50.946;14.610;2022-12-18T00:17:35;98422.13;;;-1.82;61.71
4199;BME280;2113;50.946;14.610;2022-12-18T00:20:03;98426.66;;;-2.70;63.19
4199;BME280;2113;50.946;14.610;2022-12-18T00:22:32;98422.59;;;-2.18;62.58
4199;BME280;2113;50.946;14.610;2022-12-18T00:25:00;98432.44;;;-2.03;61.95
4199;BME280;2113;50.946;14.610;2022-12-18T00:27:28;98430.69;;;-1.80;61.07
4199;BME280;2113;50.946;14.610;2022-12-18T00:29:57;98426.75;;;-1.70;61.12
4199;BME280;2113;50.946;14.610;2022-12-18T00:32:25;98431.16;;;-2.16;62.13
4199;BME280;2113;50.946;14.610;2022-12-18T00:34:54;98425.13;;;-2.18;62.40
4199;BME280;2113;50.946;14.610;2022-12-18T00:37:23;98432.56;;;-2.48;62.52
4199;BME280;2113;50.946;14.610;2022-12-18T00:39:52;98424.44;;;-2.38;63.04
4199;BME280;2113;50.946;14.610;2022-12-18T00:42:20;98432.34;;;-3.00;63.68
4199;BME280;2113;50.946;14.610;2022-12-18T00:45:08;98418.84;;;-2.52;63.27
4199;BME280;2113;50.946;14.610;2022-12-18T00:47:39;98418.22;;;-2.46;63.08
4199;BME280;2113;50.946;14.610;2022-12-18T00:50:09;98420.09;;;-2.41;62.60
4199;BME280;2113;50.946;14.610;2022-12-18T00:52:37;98432.44;;;-2.03;62.19
4199;BME280;2113;50.946;14.610;2022-12-18T00:55:06;98430.75;;;-1.79;61.58
4199;BME280;2113;50.946;14.610;2022-12-18T00:57:34;98442.63;;;-1.53;61.18
4199;BME280;2113;50.946;14.610;2022-12-18T01:00:04;98433.09;;;-1.85;61.29
4199;BME280;2113;50.946;14.610;2022-12-18T01:02:35;98443.50;;;-1.79;60.81
4199;BME280;2113;50.946;14.610;2022-12-18T01:05:06;98442.56;;;-2.06;61.37
4199;BME280;2113;50.946;14.610;2022-12-18T01:07:34;98445.25;;;-1.78;60.69
4199;BME280;2113;50.946;14.610;2022-12-18T01:10:03;98441.22;;;-1.95;61.19
4199;BME280;2113;50.946;14.610;2022-12-18T01:12:34;98444.47;;;-1.99;61.48
4199;BME280;2113;50.946;14.610;2022-12-18T01:15:03;98457.06;;;-2.28;62.07
4199;BME280;2113;50.946;14.610;2022-12-18T01:17:32;98462.88;;;-2.54;63.23
4199;BME280;2113;50.946;14.610;2022-12-18T01:20:02;98460.09;;;-2.38;63.00
4199;BME280;2113;50.946;14.610;2022-12-18T01:22:33;98457.41;;;-2.19;62.61
4199;BME280;2113;50.946;14.610;2022-12-18T01:25:02;98468.09;;;-2.29;62.17
4199;BME280;2113;50.946;14.610;2022-12-18T01:27:30;98455.56;;;-2.23;62.33
4199;BME280;2113;50.946;14.610;2022-12-18T01:29:59;98463.22;;;-2.45;62.86
4199;BME280;2113;50.946;14.610;2022-12-18T01:32:29;98476.13;;;-2.86;63.82
4199;BME280;2113;50.946;14.610;2022-12-18T01:34:58;98480.28;;;-3.31;64.78
4199;BME280;2113;50.946;14.610;2022-12-18T01:37:28;98474.72;;;-3.63;65.79
4199;BME280;2113;50.946;14.610;2022-12-18T01:39:56;98480.50;;;-3.67;66.19
4199;BME280;2113;50.946;14.610;2022-12-18T01:42:24;98485.69;;;-3.85;66.16
4199;BME280;2113;50.946;14.610;2022-12-18T01:44:57;98482.88;;;-3.51;66.20
4199;BME280;2113;50.946;14.610;2022-12-18T01:47:28;98497.13;;;-4.15;67.14
4199;BME280;2113;50.946;14.610;2022-12-18T01:50:01;98489.53;;;-3.33;66.00
4199;BME280;2113;50.946;14.610;2022-12-18T01:52:32;98482.75;;;-3.33;65.41
4199;BME280;2113;50.946;14.610;2022-12-18T01:55:02;98481.88;;;-3.12;64.33
4199;BME280;2113;50.946;14.610;2022-12-18T01:57:31;98484.72;;;-3.47;64.98
4199;BME280;2113;50.946;14.610;2022-12-18T02:00:06;98485.75;;;-3.22;63.75
4199;BME280;2113;50.946;14.610;2022-12-18T02:02:43;98487.56;;;-2.97;63.46
4199;BME280;2113;50.946;14.610;2022-12-18T02:05:14;98482.78;;;-2.89;63.12
4199;BME280;2113;50.946;14.610;2022-12-18T02:07:52;98482.91;;;-2.86;62.29
4199;BME280;2113;50.946;14.610;2022-12-18T02:10:27;98477.47;;;-2.96;62.56
4199;BME280;2113;50.946;14.610;2022-12-18T02:13:02;98472.97;;;-2.58;62.08
4199;BME280;2113;50.946;14.610;2022-12-18T02:15:40;98469.59;;;-2.57;61.88
4199;BME280;2113;50.946;14.610;2022-12-18T02:18:13;98459.88;;;-2.44;60.95
4199;BME280;2113;50.946;14.610;2022-12-18T02:20:49;98479.72;;;-3.03;62.10
4199;BME280;2113;50.946;14.610;2022-12-18T02:23:38;98492.44;;;-3.24;62.92
4199;BME280;2113;50.946;14.610;2022-12-18T02:26:18;98494.78;;;-3.50;63.92
4199;BME280;2113;50.946;14.610;2022-12-18T02:28:53;98493.84;;;-3.10;62.95
4199;BME280;2113;50.946;14.610;2022-12-18T02:31:28;98496.75;;;-3.01;62.98
4199;BME280;2113;50.946;14.610;2022-12-18T02:34:00;98494.06;;;-3.26;63.36
4199;BME280;2113;50.946;14.610;2022-12-18T02:36:36;98496.38;;;-3.52;63.68
4199;BME280;2113;50.946;14.610;2022-12-18T02:39:07;98500.03;;;-3.66;63.90
4199;BME280;2113;50.946;14.610;2022-12-18T02:41:48;98502.81;;;-3.60;64.01
4199;BME280;2113;50.946;14.610;2022-12-18T02:44:17;98506.59;;;-3.91;64.83
4199;BME280;2113;50.946;14.610;2022-12-18T02:46:46;98505.22;;;-3.63;64.59
4199;BME280;2113;50.946;14.610;2022-12-18T02:49:26;98506.31;;;-3.58;63.56
4199;BME280;2113;50.946;14.610;2022-12-18T02:52:06;98506.22;;;-4.00;64.99
4199;BME280;2113;50.946;14.610;2022-12-18T02:54:49;98505.16;;;-3.86;64.64
4199;BME280;2113;50.946;14.610;2022-12-18T02:57:26;98495.66;;;-3.28;63.76
4199;BME280;2113;50.946;14.610;2022-12-18T03:00:03;98488.44;;;-2.97;62.30
4199;BME280;2113;50.946;14.610;2022-12-18T03:02:39;98492.44;;;-3.03;62.49
4199;BME280;2113;50.946;14.610;2022-12-18T03:05:15;98493.84;;;-3.31;62.71
4199;BME280;2113;50.946;14.610;2022-12-18T03:07:50;98490.22;;;-3.17;63.14
4199;BME280;2113;50.946;14.610;2022-12-18T03:10:24;98492.53;;;-3.42;63.33
4199;BME280;2113;50.946;14.610;2022-12-18T03:13:00;98492.06;;;-3.33;63.41
4199;BME280;2113;50.946;14.610;2022-12-18T03:15:34;98497.16;;;-3.33;63.14
4199;BME280;2113;50.946;14.610;2022-12-18T03:18:12;98507.13;;;-3.79;64.09
4199;BME280;2113;50.946;14.610;2022-12-18T03:20:44;98500.56;;;-3.74;64.54
4199;BME280;2113;50.946;14.610;2022-12-18T03:23:22;98506.81;;;-3.46;63.69
4199;BME280;2113;50.946;14.610;2022-12-18T03:25:54;98505.66;;;-3.74;63.42
4199;BME280;2113;50.946;14.610;2022-12-18T03:28:35;98505.88;;;-3.27;62.98
4199;BME280;2113;50.946;14.610;2022-12-18T03:31:08;98507.03;;;-3.20;62.12
4199;BME280;2113;50.946;14.610;2022-12-18T03:33:39;98500.81;;;-3.67;63.48
4199;BME280;2113;50.946;14.610;2022-12-18T03:36:09;98501.09;;;-3.40;63.39
4199;BME280;2113;50.946;14.610;2022-12-18T03:38:37;98503.97;;;-3.32;62.98
4199;BME280;2113;50.946;14.610;2022-12-18T03:41:14;98507.72;;;-3.84;63.63
4199;BME280;2113;50.946;14.610;2022-12-18T03:44:28;98522.31;;;-3.61;63.91
4199;BME280;2113;50.946;14.610;2022-12-18T03:47:04;98516.88;;;-3.49;63.35
4199;BME280;2113;50.946;14.610;2022-12-18T03:49:37;98514.16;;;-3.73;63.18
4199;BME280;2113;50.946;14.610;2022-12-18T03:52:11;98518.56;;;-3.88;63.39
4199;BME280;2113;50.946;14.610;2022-12-18T03:54:42;98523.69;;;-3.67;63.29
4199;BME280;2113;50.946;14.610;2022-12-18T03:57:16;98517.63;;;-3.51;63.04
4199;BME280;2113;50.946;14.610;2022-12-18T03:59:50;98522.06;;;-3.46;62.87
4199;BME280;2113;50.946;14.610;2022-12-18T04:02:23;98517.44;;;-3.95;63.22
4199;BME280;2113;50.946;14.610;2022-12-18T04:04:57;98513.50;;;-3.48;62.79
4199;BME280;2113;50.946;14.610;2022-12-18T04:07:27;98528.09;;;-3.63;62.23
4199;BME280;2113;50.946;14.610;2022-12-18T04:09:59;98532.44;;;-3.82;62.77
4199;BME280;2113;50.946;14.610;2022-12-18T04:12:30;98532.81;;;-4.11;63.02
4199;BME280;2113;50.946;14.610;2022-12-18T04:15:00;98531.41;;;-3.85;62.96
4199;BME280;2113;50.946;14.610;2022-12-18T04:17:29;98525.78;;;-3.98;63.26
4199;BME280;2113;50.946;14.610;2022-12-18T04:19:57;98527.47;;;-3.98;63.22
4199;BME280;2113;50.946;14.610;2022-12-18T04:22:25;98531.75;;;-3.97;63.14
4199;BME280;2113;50.946;14.610;2022-12-18T04:24:58;98531.97;;;-4.30;63.84
4199;BME280;2113;50.946;14.610;2022-12-18T04:27:34;98545.56;;;-4.47;64.45
4199;BME280;2113;50.946;14.610;2022-12-18T04:30:06;98536.91;;;-4.53;64.35
4199;BME280;2113;50.946;14.610;2022-12-18T04:32:35;98544.78;;;-5.18;66.40
4199;BME280;2113;50.946;14.610;2022-12-18T04:35:03;98545.09;;;-4.94;66.12
4199;BME280;2113;50.946;14.610;2022-12-18T04:37:34;98554.22;;;-4.80;65.78
4199;BME280;2113;50.946;14.610;2022-12-18T04:40:05;98553.53;;;-4.77;65.51
4199;BME280;2113;50.946;14.610;2022-12-18T04:42:39;98550.72;;;-4.28;64.87
4199;BME280;2113;50.946;14.610;2022-12-18T04:45:10;98548.06;;;-4.11;63.70
4199;BME280;2113;50.946;14.610;2022-12-18T04:47:38;98546.75;;;-4.41;64.04
4199;BME280;2113;50.946;14.610;2022-12-18T04:50:07;98553.78;;;-4.53;64.24
4199;BME280;2113;50.946;14.610;2022-12-18T04:52:35;98559.75;;;-4.53;64.47
4199;BME280;2113;50.946;14.610;2022-12-18T04:55:04;98563.00;;;-4.37;64.38
4199;BME280;2113;50.946;14.610;2022-12-18T04:57:32;98567.97;;;-4.01;63.94
4199;BME280;2113;50.946;14.610;2022-12-18T05:00:00;98580.75;;;-4.00;63.81
4199;BME280;2113;50.946;14.610;2022-12-18T05:02:30;98574.91;;;-4.17;63.50
4199;BME280;2113;50.946;14.610;2022-12-18T05:04:58;98578.44;;;-3.95;63.48
4199;BME280;2113;50.946;14.610;2022-12-18T05:07:26;98582.97;;;-3.88;62.96
4199;BME280;2113;50.946;14.610;2022-12-18T05:09:54;98577.50;;;-3.97;63.39
4199;BME280;2113;50.946;14.610;2022-12-18T05:12:22;98580.84;;;-3.79;62.80
4199;BME280;2113;50.946;14.610;2022-12-18T05:14:50;98583.78;;;-4.08;63.28
4199;BME280;2113;50.946;14.610;2022-12-18T05:17:19;98589.28;;;-4.17;64.26
4199;BME280;2113;50.946;14.610;2022-12-18T05:19:48;98593.44;;;-3.82;63.07
4199;BME280;2113;50.946;14.610;2022-12-18T05:22:16;98590.47;;;-4.28;64.02
4199;BME280;2113;50.946;14.610;2022-12-18T05:24:44;98597.91;;;-4.14;64.15
4199;BME280;2113;50.946;14.610;2022-12-18T05:27:12;98593.50;;;-4.18;64.68
4199;BME280;2113;50.946;14.610;2022-12-18T05:29:41;98601.00;;;-4.01;63.78
4199;BME280;2113;50.946;14.610;2022-12-18T05:32:09;98608.13;;;-3.75;63.60
4199;BME280;2113;50.946;14.610;2022-12-18T05:34:37;98598.97;;;-3.90;63.15
4199;BME280;2113;50.946;14.610;2022-12-18T05:37:07;98602.41;;;-3.70;63.34
4199;BME280;2113;50.946;14.610;2022-12-18T05:39:35;98591.78;;;-3.41;62.71
4199;BME280;2113;50.946;14.610;2022-12-18T05:42:03;98582.97;;;-3.49;62.13
4199;BME280;2113;50.946;14.610;2022-12-18T05:44:31;98576.94;;;-3.31;61.44
4199;BME280;2113;50.946;14.610;2022-12-18T05:46:59;98588.50;;;-4.34;64.42
4199;BME280;2113;50.946;14.610;2022-12-18T05:49:27;98582.91;;;-4.27;65.43
4199;BME280;2113;50.946;14.610;2022-12-18T05:51:56;98589.91;;;-4.03;64.95
4199;BME280;2113;50.946;14.610;2022-12-18T05:54:26;98599.56;;;-3.96;64.98
4199;BME280;2113;50.946;14.610;2022-12-18T05:56:55;98596.81;;;-4.01;64.96
4199;BME280;2113;50.946;14.610;2022-12-18T05:59:23;98599.78;;;-3.72;64.05
4199;BME280;2113;50.946;14.610;2022-12-18T06:01:51;98591.28;;;-3.53;63.58
4199;BME280;2113;50.946;14.610;2022-12-18T06:04:19;98605.09;;;-2.86;62.44
4199;BME280;2113;50.946;14.610;2022-12-18T06:06:48;98609.66;;;-3.20;61.54
4199;BME280;2113;50.946;14.610;2022-12-18T06:09:16;98602.00;;;-3.20;61.33
4199;BME280;2113;50.946;14.610;2022-12-18T06:11:45;98604.28;;;-2.85;60.91
4199;BME280;2113;50.946;14.610;2022-12-18T06:14:13;98603.84;;;-2.75;59.98
4199;BME280;2113;50.946;14.610;2022-12-18T06:16:43;98615.59;;;-2.58;59.54
4199;BME280;2113;50.946;14.610;2022-12-18T06:19:14;98611.34;;;-2.36;59.41
4199;BME280;2113;50.946;14.610;2022-12-18T06:21:43;98612.31;;;-2.32;59.28
4199;BME280;2113;50.946;14.610;2022-12-18T06:24:11;98609.00;;;-2.30;59.44
4199;BME280;2113;50.946;14.610;2022-12-18T06:26:39;98603.63;;;-2.38;59.31
4199;BME280;2113;50.946;14.610;2022-12-18T06:29:09;98607.75;;;-2.83;59.81
4199;BME280;2113;50.946;14.610;2022-12-18T06:31:37;98608.63;;;-2.62;59.45
4199;BME280;2113;50.946;14.610;2022-12-18T06:34:06;98617.44;;;-2.53;59.29
4199;BME280;2113;50.946;14.610;2022-12-18T06:36:34;98621.16;;;-2.45;59.14
4199;BME280;2113;50.946;14.610;2022-12-18T06:39:03;98621.00;;;-2.50;58.75
4199;BME280;2113;50.946;14.610;2022-12-18T06:41:31;98625.63;;;-2.61;59.05
4199;BME280;2113;50.946;14.610;2022-12-18T06:44:00;98625.44;;;-2.44;59.23
4199;BME280;2113;50.946;14.610;2022-12-18T06:46:29;98628.47;;;-2.32;58.89
4199;BME280;2113;50.946;14.610;2022-12-18T06:48:59;98631.59;;;-2.17;58.42
4199;BME280;2113;50.946;14.610;2022-12-18T06:51:27;98633.03;;;-2.02;58.34
4199;BME280;2113;50.946;14.610;2022-12-18T06:53:55;98641.16;;;-2.11;58.46
4199;BME280;2113;50.946;14.610;2022-12-18T06:56:23;98642.72;;;-2.14;58.53
4199;BME280;2113;50.946;14.610;2022-12-18T06:58:52;98648.09;;;-2.29;58.44
4199;BME280;2113;50.946;14.610;2022-12-18T07:01:20;98644.59;;;-2.10;58.44
4199;BME280;2113;50.946;14.610;2022-12-18T07:03:53;98655.72;;;-2.52;59.12
4199;BME280;2113;50.946;14.610;2022-12-18T07:06:23;98662.03;;;-2.42;59.19
4199;BME280;2113;50.946;14.610;2022-12-18T07:08:53;98667.59;;;-2.93;60.31
4199;BME280;2113;50.946;14.610;2022-12-18T07:11:22;98656.56;;;-2.93;60.81
4199;BME280;2113;50.946;14.610;2022-12-18T07:13:52;98656.72;;;-2.48;60.27
4199;BME280;2113;50.946;14.610;2022-12-18T07:16:21;98661.66;;;-2.93;60.44
4199;BME280;2113;50.946;14.610;2022-12-18T07:18:54;98667.31;;;-2.80;60.82
4199;BME280;2113;50.946;14.610;2022-12-18T07:21:23;98671.69;;;-2.97;60.56
4199;BME280;2113;50.946;14.610;2022-12-18T07:23:52;98675.91;;;-3.56;63.10
4199;BME280;2113;50.946;14.610;2022-12-18T07:26:21;98683.03;;;-3.29;61.86
4199;BME280;2113;50.946;14.610;2022-12-18T07:28:50;98680.34;;;-3.12;63.10
4199;BME280;2113;50.946;14.610;2022-12-18T07:31:20;98681.53;;;-2.43;61.05
4199;BME280;2113;50.946;14.610;2022-12-18T07:33:49;98674.50;;;-2.06;60.04
4199;BME280;2113;50.946;14.610;2022-12-18T07:36:20;98671.00;;;-1.86;58.71
4199;BME280;2113;50.946;14.610;2022-12-18T07:38:49;98675.75;;;-1.95;58.84
4199;BME280;2113;50.946;14.610;2022-12-18T07:41:18;98681.25;;;-2.07;58.45
4199;BME280;2113;50.946;14.610;2022-12-18T07:43:46;98694.91;;;-2.06;59.10
4199;BME280;2113;50.946;14.610;2022-12-18T07:46:16;98685.72;;;-2.01;59.31
4199;BME280;2113;50.946;14.610;2022-12-18T07:48:44;98694.78;;;-1.87;59.01
4199;BME280;2113;50.946;14.610;2022-12-18T07:51:17;98701.19;;;-2.40;59.79
4199;BME280;2113;50.946;14.610;2022-12-18T07:53:47;98702.00;;;-1.98;59.50
4199;BME280;2113;50.946;14.610;2022-12-18T07:56:20;98711.59;;;-1.92;58.90
4199;BME280;2113;50.946;14.610;2022-12-18T07:58:54;98711.34;;;-1.53;57.82
4199;BME280;2113;50.946;14.610;2022-12-18T08:01:23;98713.38;;;-2.12;59.47
4199;BME280;2113;50.946;14.610;2022-12-18T08:03:51;98715.59;;;-2.62;61.36
4199;BME280;2113;50.946;14.610;2022-12-18T08:06:20;98724.72;;;-3.45;63.64
4199;BME280;2113;50.946;14.610;2022-12-18T08:08:52;98723.50;;;-3.53;64.54
4199;BME280;2113;50.946;14.610;2022-12-18T08:11:22;98722.00;;;-3.67;64.70
4199;BME280;2113;50.946;14.610;2022-12-18T08:13:50;98717.16;;;-3.63;65.29
4199;BME280;2113;50.946;14.610;2022-12-18T08:16:19;98722.94;;;-3.08;63.99
4199;BME280;2113;50.946;14.610;2022-12-18T08:18:48;98716.31;;;-3.44;64.73
4199;BME280;2113;50.946;14.610;2022-12-18T08:21:18;98705.78;;;-3.12;64.43
4199;BME280;2113;50.946;14.610;2022-12-18T08:23:49;98700.63;;;-2.95;63.54
4199;BME280;2113;50.946;14.610;2022-12-18T08:26:19;98706.00;;;-3.27;63.86
4199;BME280;2113;50.946;14.610;2022-12-18T08:28:48;98699.19;;;-2.47;62.47
4199;BME280;2113;50.946;14.610;2022-12-18T08:31:17;98704.63;;;-2.80;62.43
4199;BME280;2113;50.946;14.610;2022-12-18T08:33:48;98699.94;;;-2.71;62.53
4199;BME280;2113;50.946;14.610;2022-12-18T08:36:17;98698.56;;;-2.42;62.30
4199;BME280;2113;50.946;14.610;2022-12-18T08:38:46;98701.66;;;-2.07;61.21
4199;BME280;2113;50.946;14.610;2022-12-18T08:41:16;98694.72;;;-1.66;59.32
4199;BME280;2113;50.946;14.610;2022-12-18T08:43:46;98697.09;;;-2.58;60.48
4199;BME280;2113;50.946;14.610;2022-12-18T08:46:34;98690.69;;;-2.69;61.98
4199;BME280;2113;50.946;14.610;2022-12-18T08:49:03;98691.25;;;-2.34;60.92
4199;BME280;2113;50.946;14.610;2022-12-18T08:51:32;98686.13;;;-2.34;60.84
4199;BME280;2113;50.946;14.610;2022-12-18T08:54:01;98682.41;;;-1.78;59.64
4199;BME280;2113;50.946;14.610;2022-12-18T08:56:32;98687.25;;;-2.06;59.56
4199;BME280;2113;50.946;14.610;2022-12-18T08:59:02;98681.06;;;-2.55;60.81
4199;BME280;2113;50.946;14.610;2022-12-18T09:01:31;98684.06;;;-2.22;59.77
4199;BME280;2113;50.946;14.610;2022-12-18T09:04:00;98680.41;;;-2.07;59.92
4199;BME280;2113;50.946;14.610;2022-12-18T09:06:28;98679.94;;;-1.52;57.46
4199;BME280;2113;50.946;14.610;2022-12-18T09:08:56;98681.63;;;-1.52;57.82
4199;BME280;2113;50.946;14.610;2022-12-18T09:11:27;98679.34;;;-1.21;55.85
4199;BME280;2113;50.946;14.610;2022-12-18T09:13:57;98678.44;;;-1.47;56.61
4199;BME280;2113;50.946;14.610;2022-12-18T09:16:28;98691.22;;;-2.13;58.64
4199;BME280;2113;50.946;14.610;2022-12-18T09:18:59;98705.19;;;-2.03;57.84
4199;BME280;2113;50.946;14.610;2022-12-18T09:21:29;98705.59;;;-2.15;57.71
4199;BME280;2113;50.946;14.610;2022-12-18T09:24:03;98711.97;;;-2.67;58.31
4199;BME280;2113;50.946;14.610;2022-12-18T09:26:35;98707.94;;;-2.83;59.56
4199;BME280;2113;50.946;14.610;2022-12-18T09:29:03;98716.72;;;-3.15;59.52
4199;BME280;2113;50.946;14.610;2022-12-18T09:31:35;98719.13;;;-3.38;60.87
4199;BME280;2113;50.946;14.610;2022-12-18T09:34:03;98712.50;;;-3.34;60.94
4199;BME280;2113;50.946;14.610;2022-12-18T09:36:33;98711.72;;;-2.92;59.76
4199;BME280;2113;50.946;14.610;2022-12-18T09:39:02;98716.50;;;-3.20;60.37
4199;BME280;2113;50.946;14.610;2022-12-18T09:41:41;98716.75;;;-3.33;61.23
4199;BME280;2113;50.946;14.610;2022-12-18T09:44:18;98711.06;;;-3.47;61.13
4199;BME280;2113;50.946;14.610;2022-12-18T09:46:54;98722.66;;;-3.34;61.39
4199;BME280;2113;50.946;14.610;2022-12-18T09:49:28;98734.09;;;-3.44;61.88
4199;BME280;2113;50.946;14.610;2022-12-18T09:52:00;98722.28;;;-3.61;61.74
4199;BME280;2113;50.946;14.610;2022-12-18T09:54:33;98731.97;;;-3.90;62.79
4199;BME280;2113;50.946;14.610;2022-12-18T09:57:04;98728.50;;;-3.17;61.17
4199;BME280;2113;50.946;14.610;2022-12-18T09:59:35;98735.59;;;-3.10;60.79
4199;BME280;2113;50.946;14.610;2022-12-18T10:02:17;98735.84;;;-3.23;60.23
4199;BME280;2113;50.946;14.610;2022-12-18T10:04:52;98734.31;;;-2.81;59.64
4199;BME280;2113;50.946;14.610;2022-12-18T10:07:26;98743.38;;;-3.07;60.37
4199;BME280;2113;50.946;14.610;2022-12-18T10:10:02;98750.59;;;-2.97;59.35
4199;BME280;2113;50.946;14.610;2022-12-18T10:12:40;98745.66;;;-2.53;58.45
4199;BME280;2113;50.946;14.610;2022-12-18T10:15:19;98737.47;;;-2.25;57.98
4199;BME280;2113;50.946;14.610;2022-12-18T10:17:58;98739.78;;;-2.71;58.99
4199;BME280;2113;50.946;14.610;2022-12-18T10:20:32;98727.97;;;-2.29;58.38
4199;BME280;2113;50.946;14.610;2022-12-18T10:23:08;98735.22;;;-2.59;59.21
4199;BME280;2113;50.946;14.610;2022-12-18T10:25:50;98740.34;;;-2.98;60.02
4199;BME280;2113;50.946;14.610;2022-12-18T10:28:20;98718.63;;;-3.29;61.05
4199;BME280;2113;50.946;14.610;2022-12-18T10:30:48;98718.72;;;-2.88;59.86
4199;BME280;2113;50.946;14.610;2022-12-18T10:33:20;98725.28;;;-2.93;60.18
4199;BME280;2113;50.946;14.610;2022-12-18T10:35:52;98720.56;;;-2.65;59.40
4199;BME280;2113;50.946;14.610;2022-12-18T10:38:24;98707.44;;;-2.32;57.81
4199;BME280;2113;50.946;14.610;2022-12-18T10:40:55;98705.75;;;-2.52;59.06
4199;BME280;2113;50.946;14.610;2022-12-18T10:43:26;98705.94;;;-3.09;60.70
4199;BME280;2113;50.946;14.610;2022-12-18T10:46:12;98699.97;;;-3.10;61.05
4199;BME280;2113;50.946;14.610;2022-12-18T10:48:54;98689.47;;;-2.77;59.85
4199;BME280;2113;50.946;14.610;2022-12-18T10:51:27;98684.69;;;-3.10;60.65
4199;BME280;2113;50.946;14.610;2022-12-18T10:53:59;98679.66;;;-2.89;59.92
4199;BME280;2113;50.946;14.610;2022-12-18T10:56:32;98686.97;;;-2.97;60.18
4199;BME280;2113;50.946;14.610;2022-12-18T10:59:03;98677.19;;;-2.45;59.12
4199;BME280;2113;50.946;14.610;2022-12-18T11:01:46;98674.75;;;-2.84;59.29
4199;BME280;2113;50.946;14.610;2022-12-18T11:04:19;98671.03;;;-2.50;58.96
4199;BME280;2113;50.946;14.610;2022-12-18T11:06:57;98666.63;;;-1.67;56.06
4199;BME280;2113;50.946;14.610;2022-12-18T11:09:27;98676.09;;;-2.08;56.53
4199;BME280;2113;50.946;14.610;2022-12-18T11:11:58;98667.16;;;-1.99;56.24
4199;BME280;2113;50.946;14.610;2022-12-18T11:14:28;98663.03;;;-2.39;57.25
4199;BME280;2113;50.946;14.610;2022-12-18T11:16:58;98664.34;;;-1.60;55.46
4199;BME280;2113;50.946;14.610;2022-12-18T11:19:53;98661.88;;;-2.24;57.76
4199;BME280;2113;50.946;14.610;2022-12-18T11:22:24;98660.09;;;-3.30;60.25
4199;BME280;2113;50.946;14.610;2022-12-18T11:24:57;98663.41;;;-3.31;60.51
4199;BME280;2113;50.946;14.610;2022-12-18T11:27:52;98664.63;;;-3.43;61.09
4199;BME280;2113;50.946;14.610;2022-12-18T11:30:22;98655.69;;;-3.13;60.32
4199;BME280;2113;50.946;14.610;2022-12-18T11:32:53;98659.56;;;-2.62;59.18
4199;BME280;2113;50.946;14.610;2022-12-18T11:35:35;98658.19;;;-2.53;58.38
4199;BME280;2113;50.946;14.610;2022-12-18T11:38:12;98659.72;;;-2.36;58.20
4199;BME280;2113;50.946;14.610;2022-12-18T11:40:49;98660.47;;;-1.95;57.09
4199;BME280;2113;50.946;14.610;2022-12-18T11:43:23;98651.00;;;-1.52;55.58
4199;BME280;2113;50.946;14.610;2022-12-18T11:45:56;98646.34;;;-1.16;53.71
4199;BME280;2113;50.946;14.610;2022-12-18T11:48:32;98642.59;;;-0.76;53.16
4199;BME280;2113;50.946;14.610;2022-12-18T11:51:05;98643.88;;;-0.89;53.60
4199;BME280;2113;50.946;14.610;2022-12-18T11:53:37;98636.56;;;-0.78;53.24
4199;BME280;2113;50.946;14.610;2022-12-18T11:56:25;98636.00;;;-0.42;52.44
4199;BME280;2113;50.946;14.610;2022-12-18T11:58:59;98632.53;;;-0.97;53.08
4199;BME280;2113;50.946;14.610;2022-12-18T12:01:42;98618.28;;;-0.90;53.28
4199;BME280;2113;50.946;14.610;2022-12-18T12:04:30;98619.91;;;-0.40;52.25
4199;BME280;2113;50.946;14.610;2022-12-18T12:07:14;98632.50;;;-0.46;52.26
4199;BME280;2113;50.946;14.610;2022-12-18T12:09:50;98641.44;;;-0.84;52.62
4199;BME280;2113;50.946;14.610;2022-12-18T12:12:32;98639.00;;;-0.81;53.25
4199;BME280;2113;50.946;14.610;2022-12-18T12:15:24;98635.81;;;-1.00;53.06
4199;BME280;2113;50.946;14.610;2022-12-18T12:17:57;98629.06;;;-0.46;51.98
4199;BME280;2113;50.946;14.610;2022-12-18T12:20:44;98629.09;;;0.10;49.98
4199;BME280;2113;50.946;14.610;2022-12-18T12:23:25;98634.75;;;-0.82;52.23
4199;BME280;2113;50.946;14.610;2022-12-18T12:25:58;98640.78;;;-1.28;53.90
4199;BME280;2113;50.946;14.610;2022-12-18T12:28:44;98638.63;;;-1.66;54.43
4199;BME280;2113;50.946;14.610;2022-12-18T12:31:27;98640.59;;;-1.10;52.42
4199;BME280;2113;50.946;14.610;2022-12-18T12:34:05;98645.34;;;-1.44;54.21
4199;BME280;2113;50.946;14.610;2022-12-18T12:36:49;98644.94;;;-0.56;52.13
4199;BME280;2113;50.946;14.610;2022-12-18T12:39:27;98637.69;;;-0.43;51.64
4199;BME280;2113;50.946;14.610;2022-12-18T12:41:57;98638.91;;;-0.84;52.45
4199;BME280;2113;50.946;14.610;2022-12-18T12:44:46;98644.81;;;-1.11;53.53
4199;BME280;2113;50.946;14.610;2022-12-18T12:47:26;98647.44;;;-1.33;53.59
4199;BME280;2113;50.946;14.610;2022-12-18T12:49:58;98653.63;;;-1.51;54.33
4199;BME280;2113;50.946;14.610;2022-12-18T12:52:33;98659.03;;;-1.66;54.78
4199;BME280;2113;50.946;14.610;2022-12-18T12:55:12;98654.31;;;-2.23;57.07
4199;BME280;2113;50.946;14.610;2022-12-18T12:57:46;98665.56;;;-1.50;56.11
4199;BME280;2113;50.946;14.610;2022-12-18T13:00:18;98672.88;;;-1.82;56.48
4199;BME280;2113;50.946;14.610;2022-12-18T13:02:53;98673.41;;;-1.68;55.54
4199;BME280;2113;50.946;14.610;2022-12-18T13:05:28;98671.41;;;-1.52;55.23
4199;BME280;2113;50.946;14.610;2022-12-18T13:08:01;98676.53;;;-1.52;55.09
4199;BME280;2113;50.946;14.610;2022-12-18T13:10:36;98679.47;;;-2.09;56.69
4199;BME280;2113;50.946;14.610;2022-12-18T13:13:07;98679.13;;;-1.27;55.40
4199;BME280;2113;50.946;14.610;2022-12-18T13:15:38;98689.78;;;-1.39;54.53
4199;BME280;2113;50.946;14.610;2022-12-18T13:18:19;98697.75;;;-1.99;55.84
4199;BME280;2113;50.946;14.610;2022-12-18T13:20:51;98698.06;;;-2.75;58.67
4199;BME280;2113;50.946;14.610;2022-12-18T13:23:34;98696.47;;;-2.92;59.75
4199;BME280;2113;50.946;14.610;2022-12-18T13:26:30;98697.41;;;-3.10;59.72
4199;BME280;2113;50.946;14.610;2022-12-18T13:29:01;98695.88;;;-2.66;59.37
4199;BME280;2113;50.946;14.610;2022-12-18T13:34:30;98697.22;;;-3.15;59.94
4199;BME280;2113;50.946;14.610;2022-12-18T13:40:02;98697.09;;;-2.58;59.34
4199;BME280;2113;50.946;14.610;2022-12-18T13:42:44;98704.88;;;-2.74;59.05